createdAt,value
2024-01-09T00:01:20.804Z,30.01
2024-01-09T00:04:38.449Z,29.61
2024-01-09T00:07:50.497Z,29.42
2024-01-09T00:11:38.850Z,29.26
2024-01-09T00:15:42.564Z,28.82
2024-01-09T00:19:36.697Z,29.21
2024-01-09T00:23:28.439Z,29.94
2024-01-09T00:27:24.173Z,29.71
2024-01-09T00:31:13.100Z,29.14
2024-01-09T00:35:01.305Z,29.05
2024-01-09T00:39:08.080Z,29.59
2024-01-09T00:42:56.443Z,29.13
2024-01-09T00:46:53.445Z,28.55
2024-01-09T00:50:44.493Z,28.18
2024-01-09T00:54:36.029Z,27.87
2024-01-09T01:02:40.336Z,27.52
2024-01-09T01:06:31.236Z,28.01
2024-01-09T01:14:14.769Z,28.02
2024-01-09T01:18:05.761Z,27.81
2024-01-09T01:21:59.409Z,28.25
2024-01-09T01:25:54.948Z,27.60
2024-01-09T01:29:43.783Z,27.48
2024-01-09T01:33:44.785Z,27.47
2024-01-09T01:37:39.892Z,27.52
2024-01-09T01:41:29.429Z,27.59
2024-01-09T01:45:22.635Z,27.69
2024-01-09T01:53:09.360Z,27.70
2024-01-09T01:56:56.724Z,27.59
2024-01-09T02:04:27.553Z,27.38
2024-01-09T02:08:14.838Z,27.13
2024-01-09T02:15:53.402Z,27.01
2024-01-09T02:19:45.058Z,27.20
2024-01-09T02:23:43.852Z,27.14
2024-01-09T02:31:01.409Z,27.21
2024-01-09T02:35:11.189Z,27.16
2024-01-09T02:39:00.223Z,27.40
2024-01-09T02:42:49.291Z,27.11
2024-01-09T02:46:39.870Z,26.86
2024-01-09T02:50:26.758Z,26.66
2024-01-09T02:54:14.956Z,26.54
2024-01-09T02:58:02.428Z,26.51
2024-01-09T03:01:57.362Z,26.81
2024-01-09T03:05:51.993Z,26.76
2024-01-09T03:09:39.059Z,26.86
2024-01-09T03:13:28.429Z,27.10
2024-01-09T03:17:15.606Z,26.82
2024-01-09T03:21:03.544Z,26.67
2024-01-09T03:28:34.748Z,26.80
2024-01-09T03:32:21.638Z,26.77
2024-01-09T03:36:03.645Z,26.46
2024-01-09T03:39:50.536Z,26.66
2024-01-09T03:42:58.364Z,26.58
2024-01-09T03:46:45.171Z,26.57
2024-01-09T03:50:21.508Z,27.06
2024-01-09T03:53:57.148Z,26.53
2024-01-09T03:57:43.980Z,26.60
2024-01-09T04:01:14.265Z,26.35
2024-01-09T04:05:01.170Z,26.36
2024-01-09T04:08:48.178Z,26.56
2024-01-09T04:12:27.130Z,26.57
2024-01-09T04:16:14.185Z,26.21
2024-01-09T04:22:35.804Z,26.12
2024-01-09T04:25:03.006Z,26.17
2024-01-09T04:27:30.260Z,26.14
2024-01-09T04:29:57.860Z,26.08
2024-01-09T04:32:25.046Z,26.20
2024-01-09T04:34:54.063Z,26.21
2024-01-09T04:37:21.129Z,25.96
2024-01-09T04:39:48.269Z,26.08
2024-01-09T04:42:15.548Z,26.29
2024-01-09T04:44:42.656Z,26.27
2024-01-09T04:47:12.929Z,26.45
2024-01-09T04:49:40.212Z,26.53
2024-01-09T04:52:07.282Z,26.40
2024-01-09T04:54:35.065Z,26.18
2024-01-09T04:57:02.403Z,26.29
2024-01-09T04:59:29.775Z,26.30
2024-01-09T05:01:57.518Z,26.10
2024-01-09T05:04:24.643Z,26.23
2024-01-09T05:06:51.672Z,26.26
2024-01-09T05:09:18.721Z,26.33
2024-01-09T05:11:45.832Z,26.21
2024-01-09T05:14:13.152Z,26.10
2024-01-09T05:16:40.394Z,26.09
2024-01-09T05:19:07.597Z,26.21
2024-01-09T05:21:34.690Z,26.04
2024-01-09T05:24:01.753Z,25.94
2024-01-09T05:26:28.836Z,25.81
2024-01-09T05:28:56.053Z,25.93
2024-01-09T05:31:26.537Z,25.77
2024-01-09T05:33:54.004Z,25.75
2024-01-09T05:36:24.042Z,25.68
2024-01-09T05:38:53.932Z,25.69
2024-01-09T05:41:23.294Z,25.67
2024-01-09T05:43:51.447Z,25.60
2024-01-09T05:46:18.788Z,25.62
2024-01-09T05:48:46.212Z,25.54
2024-01-09T05:51:13.452Z,25.52
2024-01-09T05:53:40.768Z,25.69
2024-01-09T05:56:08.297Z,25.50
2024-01-09T05:58:35.693Z,25.41
2024-01-09T06:01:03.592Z,25.19
2024-01-09T06:03:30.681Z,25.04
2024-01-09T06:05:57.952Z,25.08
2024-01-09T06:08:25.768Z,25.20
2024-01-09T06:10:52.920Z,25.27
2024-01-09T06:13:19.902Z,25.20
2024-01-09T06:15:47.004Z,25.22
2024-01-09T06:18:14.584Z,24.93
2024-01-09T06:20:42.161Z,25.06
2024-01-09T06:23:09.474Z,25.15
2024-01-09T06:25:36.460Z,25.15
2024-01-09T06:28:03.908Z,25.28
2024-01-09T06:30:31.867Z,25.29
2024-01-09T06:32:59.173Z,25.38
2024-01-09T06:35:26.524Z,25.42
2024-01-09T06:37:53.609Z,25.39
2024-01-09T06:40:21.709Z,25.39
2024-01-09T06:42:48.992Z,25.63
2024-01-09T06:45:16.389Z,25.51
2024-01-09T06:47:44.076Z,25.38
2024-01-09T06:50:21.413Z,25.51
2024-01-09T06:52:57.964Z,25.72
2024-01-09T06:55:25.293Z,25.62
2024-01-09T06:57:52.556Z,25.62
2024-01-09T07:00:23.761Z,25.50
2024-01-09T07:02:51.034Z,25.84
2024-01-09T07:05:18.313Z,25.84
2024-01-09T07:07:50.082Z,25.68
2024-01-09T07:10:19.473Z,25.95
2024-01-09T07:12:46.854Z,26.17
2024-01-09T07:15:16.884Z,26.22
2024-01-09T07:17:47.997Z,26.30
2024-01-09T07:20:16.193Z,26.46
2024-01-09T07:22:46.981Z,26.56
2024-01-09T07:25:15.938Z,26.53
2024-01-09T07:27:43.488Z,26.65
2024-01-09T07:30:11.580Z,26.65
2024-01-09T07:32:39.540Z,26.52
2024-01-09T07:35:08.093Z,26.67
2024-01-09T07:37:35.884Z,26.94
2024-01-09T07:40:04.321Z,27.11
2024-01-09T07:42:34.138Z,27.33
2024-01-09T07:45:04.293Z,27.33
2024-01-09T07:47:31.467Z,27.39
2024-01-09T07:49:58.672Z,27.36
2024-01-09T07:52:25.858Z,27.47
2024-01-09T07:56:01.741Z,27.50
2024-01-09T07:58:48.896Z,27.65
2024-01-09T08:01:18.163Z,27.53
2024-01-09T08:03:45.292Z,27.48
2024-01-09T08:06:17.173Z,27.54
2024-01-09T08:08:48.231Z,27.61
2024-01-09T08:11:18.238Z,27.90
2024-01-09T08:13:54.461Z,27.96
2024-01-09T08:16:21.850Z,28.21
2024-01-09T08:18:49.677Z,28.29
2024-01-09T08:21:17.168Z,28.41
2024-01-09T08:23:53.833Z,28.43
2024-01-09T08:26:21.123Z,28.82
2024-01-09T08:28:48.276Z,29.21
2024-01-09T08:31:15.749Z,29.45
2024-01-09T08:33:43.189Z,29.69
2024-01-09T08:36:10.562Z,30.09
2024-01-09T08:38:37.830Z,30.21
2024-01-09T08:41:09.554Z,30.09
2024-01-09T08:43:36.734Z,30.54
2024-01-09T08:46:04.112Z,30.86
2024-01-09T08:48:32.490Z,31.20
2024-01-09T08:51:00.315Z,31.35
2024-01-09T08:53:30.050Z,31.63
2024-01-09T08:55:57.609Z,32.08
2024-01-09T08:58:26.078Z,32.06
2024-01-09T09:00:53.822Z,33.24
2024-01-09T09:03:23.811Z,33.58
2024-01-09T09:06:41.912Z,34.06
2024-01-09T09:09:12.141Z,34.66
2024-01-09T09:12:47.355Z,34.92
2024-01-09T09:16:42.125Z,35.11
2024-01-09T09:20:15.276Z,37.13
2024-01-09T09:24:08.087Z,38.16
2024-01-09T09:27:58.594Z,39.79
2024-01-09T09:31:48.529Z,38.42
2024-01-09T09:35:27.687Z,39.25
2024-01-09T09:39:07.777Z,40.17
2024-01-09T09:42:59.520Z,39.88
2024-01-09T09:46:53.325Z,40.00
2024-01-09T09:50:44.962Z,41.54
2024-01-09T09:54:50.002Z,42.84
2024-01-09T09:58:50.100Z,41.76
2024-01-09T10:02:41.819Z,42.26
2024-01-09T10:10:25.360Z,42.38
2024-01-09T10:13:35.332Z,41.25
2024-01-09T10:16:25.053Z,41.47
2024-01-09T10:19:25.634Z,40.83
2024-01-09T10:22:14.910Z,40.31
2024-01-09T10:25:04.685Z,41.03
2024-01-09T10:28:31.666Z,40.92
2024-01-09T10:31:43.785Z,39.43
2024-01-09T10:34:51.084Z,38.24
2024-01-09T10:37:39.496Z,38.31
2024-01-09T10:41:01.953Z,38.82
2024-01-09T10:44:09.512Z,38.87
2024-01-09T10:47:37.358Z,38.53
2024-01-09T10:51:09.386Z,38.23
2024-01-09T10:54:17.536Z,38.05
2024-01-09T10:57:44.970Z,38.31
2024-01-09T11:01:11.912Z,39.23
2024-01-09T11:04:09.975Z,37.85
2024-01-09T11:06:57.073Z,37.77
2024-01-09T11:09:40.366Z,37.34
2024-01-09T11:12:46.549Z,37.22
2024-01-09T11:16:13.622Z,39.62
2024-01-09T11:19:30.107Z,38.77
2024-01-09T11:22:56.991Z,38.28
2024-01-09T11:26:15.157Z,39.35
2024-01-09T11:29:41.137Z,39.46
2024-01-09T11:33:10.163Z,38.86
2024-01-09T11:36:22.125Z,36.35
2024-01-09T11:40:03.241Z,37.02
2024-01-09T11:43:54.949Z,38.03
2024-01-09T11:47:38.303Z,37.84
2024-01-09T11:51:30.897Z,37.11
2024-01-09T11:55:02.925Z,36.63
2024-01-09T11:58:18.240Z,35.71
2024-01-09T12:01:34.264Z,35.81
2024-01-09T12:04:19.772Z,35.30
2024-01-09T12:11:20.076Z,34.46
2024-01-09T12:14:03.965Z,34.05
2024-01-09T12:16:33.624Z,34.23
2024-01-09T12:19:04.047Z,34.92
2024-01-09T12:21:34.466Z,35.51
2024-01-09T12:26:38.892Z,34.11
2024-01-09T12:29:08.859Z,33.89
2024-01-09T12:31:37.970Z,33.27
2024-01-09T12:34:08.631Z,31.01
2024-01-09T12:36:36.393Z,30.19
2024-01-09T12:39:49.210Z,31.71
2024-01-09T12:43:10.284Z,32.47
2024-01-09T12:46:37.336Z,32.62
2024-01-09T12:50:27.140Z,30.51
2024-01-09T12:54:04.919Z,31.98
2024-01-09T12:57:51.729Z,32.84
2024-01-09T13:01:19.485Z,32.50
2024-01-09T13:04:48.143Z,34.65
2024-01-09T13:08:16.457Z,32.86
2024-01-09T13:11:44.023Z,34.40
2024-01-09T13:15:13.023Z,31.97
2024-01-09T13:19:00.220Z,33.20
2024-01-09T13:25:40.662Z,35.73
2024-01-09T13:30:44.308Z,33.92
2024-01-09T13:33:00.608Z,35.58
2024-01-09T13:36:28.032Z,35.99
2024-01-09T13:39:57.399Z,35.90
2024-01-09T13:43:13.875Z,35.17
2024-01-09T13:46:41.053Z,34.88
2024-01-09T13:53:40.598Z,33.28
2024-01-09T13:56:36.028Z,32.90
2024-01-09T14:00:09.238Z,34.09
2024-01-09T14:02:47.106Z,33.62
2024-01-09T14:05:44.464Z,33.75
2024-01-09T14:09:15.235Z,34.43
2024-01-09T15:05:28.163Z,31.43
2024-01-09T15:07:55.535Z,31.20
2024-01-09T15:10:22.923Z,32.87
2024-01-09T15:12:53.156Z,33.98
2024-01-09T15:15:22.252Z,35.60
2024-01-09T15:17:49.774Z,41.04
2024-01-09T15:20:18.550Z,43.69
2024-01-09T15:22:46.758Z,41.96
2024-01-09T15:26:15.873Z,40.11
2024-01-09T15:30:15.713Z,38.36
2024-01-09T15:34:11.729Z,38.23
2024-01-09T15:38:08.255Z,37.23
2024-01-09T15:41:55.908Z,36.84
2024-01-09T15:45:45.383Z,35.79
2024-01-09T15:49:35.983Z,35.44
2024-01-09T15:53:30.092Z,35.37
2024-01-09T15:57:23.425Z,34.85
2024-01-09T16:00:54.537Z,34.02
2024-01-09T16:03:22.113Z,34.37
2024-01-09T16:05:50.343Z,34.95
2024-01-09T16:08:58.269Z,34.02
2024-01-09T16:15:57.817Z,33.49
2024-01-09T16:19:09.886Z,33.22
2024-01-09T16:21:46.539Z,33.09
2024-01-09T16:25:13.517Z,33.31
2024-01-09T16:28:50.650Z,33.16
2024-01-09T16:32:37.548Z,33.13
2024-01-09T16:36:19.485Z,33.03
2024-01-09T16:39:21.200Z,33.47
2024-01-09T16:41:57.997Z,32.89
2024-01-09T16:44:26.294Z,32.89
2024-01-09T16:46:57.720Z,33.97
2024-01-09T16:49:26.461Z,34.03
2024-01-09T16:51:54.032Z,34.01
2024-01-09T16:54:21.285Z,34.52
2024-01-09T16:56:49.558Z,34.38
2024-01-09T16:59:19.913Z,34.02
2024-01-09T17:01:47.626Z,33.54
2024-01-09T17:04:15.156Z,34.14
2024-01-09T17:06:43.862Z,33.97
2024-01-09T17:09:13.533Z,33.24
2024-01-09T17:11:43.142Z,33.40
2024-01-09T17:14:10.313Z,33.39
2024-01-09T17:16:46.703Z,34.09
2024-01-09T17:19:15.732Z,34.34
2024-01-09T17:21:43.285Z,34.33
2024-01-09T17:24:11.695Z,33.86
2024-01-09T17:26:39.995Z,33.48
2024-01-09T17:29:11.657Z,33.04
2024-01-09T17:31:39.969Z,32.44
2024-01-09T17:34:10.402Z,32.14
2024-01-09T17:36:39.976Z,32.43
2024-01-09T17:39:11.172Z,32.48
2024-01-09T17:41:56.942Z,33.03
2024-01-09T17:44:26.145Z,32.41
2024-01-09T17:46:53.804Z,32.10
2024-01-09T17:49:21.354Z,31.84
2024-01-09T17:51:59.829Z,31.93
2024-01-09T17:54:28.842Z,31.39
2024-01-09T17:56:56.847Z,31.19
2024-01-09T17:59:24.256Z,31.27
2024-01-09T18:01:55.007Z,31.66
2024-01-09T18:04:22.555Z,31.46
2024-01-09T18:06:51.263Z,30.93
2024-01-09T18:09:23.865Z,30.83
2024-01-09T18:11:53.693Z,31.67
2024-01-09T18:14:21.024Z,32.13
2024-01-09T18:16:50.592Z,32.32
2024-01-09T18:22:24.486Z,32.47
2024-01-09T18:24:59.686Z,32.40
2024-01-09T18:27:48.665Z,32.35
2024-01-09T18:30:38.493Z,32.70
2024-01-09T18:36:12.278Z,32.26
2024-01-09T18:38:55.198Z,32.02
2024-01-09T18:41:43.107Z,32.43
2024-01-09T18:44:10.667Z,32.33
2024-01-09T18:46:58.877Z,32.05
2024-01-09T18:49:41.235Z,31.56
2024-01-09T18:52:29.790Z,31.31
2024-01-09T18:55:12.596Z,31.76
2024-01-09T18:57:48.192Z,31.87
2024-01-09T19:00:21.531Z,31.84
2024-01-09T19:02:49.799Z,31.72
2024-01-09T19:05:20.834Z,32.14
2024-01-09T19:07:53.513Z,32.18
2024-01-09T19:10:28.682Z,31.98
2024-01-09T19:12:56.409Z,31.70
2024-01-09T19:18:12.986Z,31.62
2024-01-09T19:20:40.166Z,31.81
2024-01-09T19:23:07.840Z,31.86
2024-01-09T19:25:37.435Z,32.24
2024-01-09T19:28:05.117Z,32.03
2024-01-09T19:30:33.194Z,32.08
2024-01-09T19:33:01.911Z,31.87
2024-01-09T19:35:29.784Z,32.04
2024-01-09T19:37:57.276Z,32.07
2024-01-09T19:40:24.820Z,32.04
2024-01-09T19:42:52.434Z,31.55
2024-01-09T19:45:48.341Z,31.50
2024-01-09T19:48:24.328Z,31.20
2024-01-09T19:50:53.176Z,31.05
2024-01-09T19:53:28.983Z,30.95
2024-01-09T19:55:56.602Z,30.44
2024-01-09T19:58:24.173Z,30.14
2024-01-09T20:01:11.565Z,30.59
2024-01-09T20:07:21.981Z,30.30
2024-01-09T20:11:09.436Z,29.68
2024-01-09T20:14:30.736Z,30.30
2024-01-09T20:18:00.535Z,31.35
2024-01-09T20:21:54.160Z,31.18
2024-01-09T20:25:13.253Z,31.10
2024-01-09T20:28:23.783Z,30.45
2024-01-09T20:31:13.233Z,30.23
2024-01-09T20:34:22.604Z,30.23
2024-01-09T20:38:16.993Z,30.02
2024-01-09T20:41:49.002Z,29.50
2024-01-09T20:44:51.333Z,30.51
2024-01-09T20:47:20.954Z,30.55
2024-01-09T20:50:28.794Z,30.53
2024-01-09T20:52:57.872Z,30.22
2024-01-09T20:55:49.857Z,30.39
2024-01-09T20:59:20.172Z,30.64
2024-01-09T21:02:36.205Z,30.90
2024-01-09T21:05:04.977Z,30.85
2024-01-09T21:08:31.986Z,30.97
2024-01-09T21:12:20.318Z,31.43
2024-01-09T21:16:07.817Z,31.51
2024-01-09T21:19:38.270Z,31.14
2024-01-09T21:23:07.568Z,31.49
2024-01-09T21:26:46.267Z,31.72
2024-01-09T21:30:34.040Z,31.65
2024-01-09T21:34:24.749Z,31.80
2024-01-09T21:38:15.022Z,32.09
2024-01-09T21:42:06.734Z,31.97
2024-01-09T21:45:55.813Z,32.49
2024-01-09T21:49:50.217Z,34.24
2024-01-09T21:53:38.611Z,32.90
2024-01-09T21:57:28.145Z,32.73
2024-01-09T22:01:19.546Z,32.68
2024-01-09T22:05:08.736Z,32.63
2024-01-09T22:17:44.710Z,33.29
2024-01-09T22:25:03.409Z,33.32
2024-01-09T22:28:02.208Z,33.90
2024-01-09T22:34:05.293Z,33.73
2024-01-09T22:43:31.911Z,33.39
2024-01-09T22:46:55.891Z,34.00
2024-01-09T22:57:21.187Z,36.59
2024-01-09T23:03:42.254Z,36.87
2024-01-09T23:06:51.235Z,37.80
2024-01-09T23:10:05.936Z,37.96
2024-01-09T23:13:18.160Z,38.11
2024-01-09T23:16:34.480Z,37.58
2024-01-09T23:28:45.431Z,39.43
2024-01-09T23:32:11.042Z,39.71
2024-01-09T23:39:00.295Z,40.19
2024-01-09T23:45:19.193Z,39.49
